createdAt,value
2019-02-18T00:00:46.448Z,100.00
2019-02-18T00:03:51.706Z,100.00
2019-02-18T00:06:56.906Z,100.00
2019-02-18T00:10:02.102Z,100.00
2019-02-18T00:13:07.319Z,100.00
2019-02-18T00:16:12.479Z,100.00
2019-02-18T00:19:17.765Z,100.00
2019-02-18T00:22:22.932Z,100.00
2019-02-18T00:25:28.064Z,100.00
2019-02-18T00:28:37.873Z,100.00
2019-02-18T00:31:43.071Z,100.00
2019-02-18T00:34:48.221Z,100.00
2019-02-18T00:37:53.417Z,100.00
2019-02-18T00:40:58.562Z,100.00
2019-02-18T00:44:03.750Z,100.00
2019-02-18T00:47:08.875Z,100.00
2019-02-18T00:50:14.021Z,100.00
2019-02-18T00:53:19.210Z,100.00
2019-02-18T00:56:24.375Z,100.00
2019-02-18T00:59:30.976Z,100.00
2019-02-18T01:02:36.177Z,100.00
2019-02-18T01:05:41.304Z,100.00
2019-02-18T01:08:46.475Z,100.00
2019-02-18T01:11:51.624Z,100.00
2019-02-18T01:14:56.982Z,100.00
2019-02-18T01:18:02.167Z,100.00
2019-02-18T01:21:07.551Z,100.00
2019-02-18T01:24:12.713Z,100.00
2019-02-18T01:27:17.866Z,100.00
2019-02-18T01:30:23.053Z,100.00
2019-02-18T01:33:28.230Z,100.00
2019-02-18T01:36:33.356Z,100.00
2019-02-18T01:39:38.469Z,100.00
2019-02-18T01:42:43.676Z,100.00
2019-02-18T01:45:48.838Z,100.00
2019-02-18T01:48:53.961Z,100.00
2019-02-18T01:51:59.107Z,100.00
2019-02-18T01:55:04.501Z,100.00
2019-02-18T01:58:09.663Z,100.00
2019-02-18T02:01:18.432Z,100.00
2019-02-18T02:04:23.697Z,100.00
2019-02-18T02:07:28.805Z,100.00
2019-02-18T02:10:34.155Z,100.00
2019-02-18T02:13:39.303Z,100.00
2019-02-18T02:16:44.564Z,100.00
2019-02-18T02:19:49.749Z,100.00
2019-02-18T02:22:55.010Z,100.00
2019-02-18T02:26:00.229Z,100.00
2019-02-18T02:29:05.436Z,100.00
2019-02-18T02:32:10.624Z,100.00
2019-02-18T02:35:15.896Z,100.00
2019-02-18T02:38:21.018Z,100.00
2019-02-18T02:41:26.261Z,100.00
2019-02-18T02:44:31.657Z,100.00
2019-02-18T02:47:36.828Z,100.00
2019-02-18T02:50:41.993Z,100.00
2019-02-18T02:53:47.162Z,100.00
2019-02-18T02:56:52.335Z,100.00
2019-02-18T02:59:57.575Z,100.00
2019-02-18T03:03:02.735Z,100.00
2019-02-18T03:06:08.003Z,100.00
2019-02-18T03:09:13.166Z,100.00
2019-02-18T03:12:18.337Z,100.00
2019-02-18T03:15:25.022Z,100.00
2019-02-18T03:18:30.279Z,100.00
2019-02-18T03:21:35.583Z,100.00
2019-02-18T03:25:16.277Z,100.00
2019-02-18T03:28:59.289Z,100.00
2019-02-18T03:32:04.478Z,100.00
2019-02-18T03:35:09.640Z,100.00
2019-02-18T03:38:14.858Z,100.00
2019-02-18T03:41:20.040Z,100.00
2019-02-18T03:44:25.317Z,100.00
2019-02-18T03:47:30.428Z,100.00
2019-02-18T03:50:35.637Z,100.00
2019-02-18T03:53:40.783Z,100.00
2019-02-18T03:56:46.059Z,100.00
2019-02-18T03:59:51.240Z,100.00
2019-02-18T04:02:56.408Z,100.00
2019-02-18T04:06:01.663Z,100.00
2019-02-18T04:09:07.290Z,100.00
2019-02-18T04:12:12.490Z,100.00
2019-02-18T04:15:17.640Z,100.00
2019-02-18T04:18:22.835Z,100.00
2019-02-18T04:21:28.056Z,100.00
2019-02-18T04:24:33.234Z,100.00
2019-02-18T04:27:38.423Z,100.00
2019-02-18T04:30:43.663Z,100.00
2019-02-18T04:33:48.837Z,100.00
2019-02-18T04:36:54.022Z,100.00
2019-02-18T04:39:59.148Z,100.00
2019-02-18T04:43:04.304Z,100.00
2019-02-18T04:46:09.520Z,100.00
2019-02-18T04:49:14.703Z,100.00
2019-02-18T04:52:19.904Z,100.00
2019-02-18T04:55:25.158Z,100.00
2019-02-18T04:58:30.375Z,100.00
2019-02-18T05:01:35.529Z,100.00
2019-02-18T05:04:40.658Z,100.00
2019-02-18T05:07:45.848Z,100.00
2019-02-18T05:10:51.048Z,100.00
2019-02-18T05:13:56.313Z,100.00
2019-02-18T05:17:01.552Z,100.00
2019-02-18T05:20:06.821Z,100.00
2019-02-18T05:23:11.933Z,100.00
2019-02-18T05:26:18.200Z,100.00
2019-02-18T05:29:23.349Z,100.00
2019-02-18T05:32:28.543Z,100.00
2019-02-18T05:35:33.651Z,100.00
2019-02-18T05:38:38.818Z,100.00
2019-02-18T05:41:43.945Z,100.00
2019-02-18T05:44:49.150Z,100.00
2019-02-18T05:47:54.375Z,100.00
2019-02-18T05:50:59.556Z,100.00
2019-02-18T05:54:04.641Z,100.00
2019-02-18T05:57:09.848Z,100.00
2019-02-18T06:00:15.581Z,100.00
2019-02-18T06:03:20.680Z,100.00
2019-02-18T06:06:25.865Z,100.00
2019-02-18T06:09:31.115Z,100.00
2019-02-18T06:12:36.295Z,100.00
2019-02-18T06:15:41.553Z,100.00
2019-02-18T06:18:46.684Z,100.00
2019-02-18T06:21:59.040Z,100.00
2019-02-18T06:25:04.191Z,100.00
2019-02-18T06:28:09.390Z,100.00
2019-02-18T06:31:14.497Z,100.00
2019-02-18T06:34:19.774Z,100.00
2019-02-18T06:37:24.876Z,100.00
2019-02-18T06:40:30.069Z,100.00
2019-02-18T06:43:35.293Z,100.00
2019-02-18T06:46:59.370Z,100.00
2019-02-18T06:50:05.012Z,100.00
2019-02-18T06:53:10.190Z,100.00
2019-02-18T06:56:17.450Z,100.00
2019-02-18T06:59:29.443Z,100.00
2019-02-18T07:02:38.835Z,100.00
2019-02-18T07:06:04.089Z,100.00
2019-02-18T07:09:51.229Z,100.00
2019-02-18T07:12:54.141Z,100.00
2019-02-18T07:15:59.322Z,100.00
2019-02-18T07:19:04.464Z,100.00
2019-02-18T07:22:09.591Z,100.00
2019-02-18T07:25:14.836Z,100.00
2019-02-18T07:28:20.183Z,100.00
2019-02-18T07:31:25.356Z,100.00
2019-02-18T07:34:30.529Z,100.00
2019-02-18T07:37:35.686Z,100.00
2019-02-18T07:40:40.931Z,100.00
2019-02-18T07:43:46.139Z,100.00
2019-02-18T07:46:51.337Z,100.00
2019-02-18T07:49:56.538Z,100.00
2019-02-18T07:53:01.803Z,100.00
2019-02-18T07:56:07.083Z,100.00
2019-02-18T07:59:12.205Z,100.00
2019-02-18T08:02:17.386Z,100.00
2019-02-18T08:05:22.529Z,100.00
2019-02-18T08:08:27.718Z,100.00
2019-02-18T08:11:32.815Z,100.00
2019-02-18T08:14:37.971Z,100.00
2019-02-18T08:17:43.141Z,99.97
2019-02-18T08:20:48.364Z,99.16
2019-02-18T08:24:00.166Z,99.16
2019-02-18T08:27:00.510Z,98.07
2019-02-18T08:30:06.435Z,97.89
2019-02-18T08:33:11.641Z,98.03
2019-02-18T08:36:16.765Z,97.44
2019-02-18T08:39:21.926Z,97.05
2019-02-18T08:42:27.041Z,96.69
2019-02-18T08:45:32.210Z,96.80
2019-02-18T08:48:37.388Z,96.10
2019-02-18T08:51:42.497Z,96.00
2019-02-18T08:54:56.199Z,96.39
2019-02-18T08:57:54.639Z,96.81
2019-02-18T09:01:02.576Z,96.82
2019-02-18T09:04:06.772Z,96.38
2019-02-18T09:07:11.995Z,95.94
2019-02-18T09:10:17.139Z,94.80
2019-02-18T09:13:22.278Z,93.17
2019-02-18T09:16:27.487Z,91.14
2019-02-18T09:19:32.600Z,90.67
2019-02-18T09:22:57.986Z,92.91
2019-02-18T09:26:04.198Z,90.71
2019-02-18T09:29:11.788Z,88.61
2019-02-18T09:32:16.889Z,88.59
2019-02-18T09:35:22.122Z,89.80
2019-02-18T09:38:27.235Z,90.29
2019-02-18T09:41:32.430Z,89.96
2019-02-18T09:44:37.583Z,91.40
2019-02-18T09:47:42.702Z,89.97
2019-02-18T09:50:47.827Z,89.94
2019-02-18T09:53:52.958Z,89.07
2019-02-18T09:56:58.176Z,87.85
2019-02-18T10:00:03.457Z,87.02
2019-02-18T10:03:08.862Z,87.55
2019-02-18T10:06:14.076Z,86.67
2019-02-18T10:09:19.163Z,82.92
2019-02-18T10:12:24.280Z,84.47
2019-02-18T10:15:29.451Z,83.66
2019-02-18T10:18:34.670Z,84.13
2019-02-18T10:21:39.840Z,84.63
2019-02-18T10:24:50.663Z,84.20
2019-02-18T10:27:51.913Z,85.27
2019-02-18T10:30:57.160Z,84.82
2019-02-18T10:34:02.263Z,84.17
2019-02-18T10:37:07.444Z,85.54
2019-02-18T10:40:12.735Z,85.17
2019-02-18T10:43:17.923Z,85.27
2019-02-18T10:46:23.029Z,85.48
2019-02-18T10:49:28.279Z,86.19
2019-02-18T10:52:33.481Z,86.72
2019-02-18T10:55:38.589Z,85.41
2019-02-18T10:58:44.827Z,83.83
2019-02-18T11:01:50.019Z,83.36
2019-02-18T11:04:55.174Z,83.54
2019-02-18T11:08:00.442Z,82.72
2019-02-18T11:11:05.534Z,82.68
2019-02-18T11:14:10.685Z,83.66
2019-02-18T11:17:16.148Z,85.88
2019-02-18T11:20:21.243Z,86.63
2019-02-18T11:23:26.457Z,84.53
2019-02-18T11:26:31.627Z,83.89
2019-02-18T11:29:36.845Z,83.80
2019-02-18T11:32:41.967Z,82.66
2019-02-18T11:35:47.163Z,81.51
2019-02-18T11:38:53.598Z,79.86
2019-02-18T11:41:58.845Z,79.53
2019-02-18T11:45:04.180Z,78.52
2019-02-18T11:48:09.408Z,79.24
2019-02-18T11:51:14.564Z,77.78
2019-02-18T11:54:19.775Z,76.93
2019-02-18T11:57:24.918Z,78.27
2019-02-18T12:00:30.082Z,77.91
2019-02-18T12:03:35.228Z,76.74
2019-02-18T12:06:40.368Z,74.77
2019-02-18T12:09:45.566Z,74.16
2019-02-18T12:12:50.639Z,74.30
2019-02-18T12:15:55.811Z,73.17
2019-02-18T12:19:01.117Z,70.54
2019-02-18T12:22:06.350Z,70.18
2019-02-18T12:25:11.883Z,70.18
2019-02-18T12:28:17.465Z,69.15
2019-02-18T12:31:22.627Z,66.95
2019-02-18T12:34:27.872Z,66.86
2019-02-18T12:37:33.222Z,67.61
2019-02-18T12:40:38.332Z,67.26
2019-02-18T12:43:43.614Z,66.11
2019-02-18T12:46:48.836Z,64.11
2019-02-18T12:49:54.118Z,64.70
2019-02-18T12:52:59.344Z,65.29
2019-02-18T12:56:04.478Z,65.12
2019-02-18T12:59:09.724Z,64.26
2019-02-18T13:02:14.985Z,64.27
2019-02-18T13:05:20.185Z,64.92
2019-02-18T13:08:25.359Z,65.27
2019-02-18T13:11:30.538Z,64.71
2019-02-18T13:14:35.716Z,65.90
2019-02-18T13:17:42.739Z,65.29
2019-02-18T13:20:47.806Z,64.16
2019-02-18T13:23:54.768Z,63.88
2019-02-18T13:26:59.881Z,62.92
2019-02-18T13:30:08.382Z,62.33
2019-02-18T13:33:13.667Z,62.86
2019-02-18T13:36:18.843Z,63.41
2019-02-18T13:39:23.972Z,63.48
2019-02-18T13:42:29.173Z,62.15
2019-02-18T13:45:34.388Z,61.78
2019-02-18T13:48:39.618Z,62.31
2019-02-18T13:51:44.803Z,61.72
2019-02-18T13:54:50.371Z,62.45
2019-02-18T13:57:55.487Z,61.96
2019-02-18T14:01:00.662Z,60.77
2019-02-18T14:04:05.797Z,61.60
2019-02-18T14:07:10.924Z,61.10
2019-02-18T14:10:16.100Z,60.50
2019-02-18T14:13:21.243Z,61.14
2019-02-18T14:16:26.416Z,60.57
2019-02-18T14:19:31.498Z,59.16
2019-02-18T14:22:36.666Z,59.45
2019-02-18T14:25:41.842Z,60.54
2019-02-18T14:28:47.008Z,59.77
2019-02-18T14:31:52.234Z,60.33
2019-02-18T14:34:58.098Z,59.52
2019-02-18T14:38:03.241Z,59.66
2019-02-18T14:41:08.703Z,59.64
2019-02-18T14:44:14.275Z,59.95
2019-02-18T14:47:19.394Z,59.36
2019-02-18T14:50:24.576Z,59.52
2019-02-18T14:53:29.763Z,59.82
2019-02-18T14:56:34.830Z,59.81
2019-02-18T14:59:40.020Z,60.43
2019-02-18T15:02:45.247Z,60.92
2019-02-18T15:05:51.280Z,61.56
2019-02-18T15:08:56.451Z,62.21
2019-02-18T15:12:01.644Z,62.53
2019-02-18T15:15:07.186Z,63.28
2019-02-18T15:18:12.395Z,64.99
2019-02-18T15:21:17.541Z,65.40
2019-02-18T15:24:23.354Z,65.99
2019-02-18T15:27:28.509Z,67.35
2019-02-18T15:30:33.703Z,67.19
2019-02-18T15:33:38.838Z,66.95
2019-02-18T15:36:44.013Z,67.10
2019-02-18T15:39:49.201Z,67.15
2019-02-18T15:42:54.425Z,67.36
2019-02-18T15:45:59.549Z,67.47
2019-02-18T15:49:04.696Z,67.54
2019-02-18T15:52:09.901Z,67.67
2019-02-18T15:55:15.181Z,68.07
2019-02-18T15:58:20.338Z,68.42
2019-02-18T16:01:28.596Z,69.22
2019-02-18T16:04:34.080Z,71.18
2019-02-18T16:07:39.231Z,72.95
2019-02-18T16:10:44.385Z,74.34
2019-02-18T16:13:49.506Z,75.07
2019-02-18T16:16:54.693Z,75.68
2019-02-18T16:20:00.314Z,75.95
2019-02-18T16:23:05.420Z,76.57
2019-02-18T16:26:10.602Z,77.12
2019-02-18T16:29:15.814Z,77.84
2019-02-18T16:32:21.029Z,78.05
2019-02-18T16:35:26.244Z,79.25
2019-02-18T16:38:31.516Z,80.48
2019-02-18T16:41:36.640Z,81.26
2019-02-18T16:44:41.855Z,82.11
2019-02-18T16:47:47.046Z,82.45
2019-02-18T16:50:52.207Z,82.73
2019-02-18T16:53:57.584Z,83.96
2019-02-18T16:57:02.710Z,84.95
2019-02-18T17:00:17.206Z,84.62
2019-02-18T17:03:22.453Z,85.54
2019-02-18T17:06:27.646Z,86.44
2019-02-18T17:09:32.884Z,86.73
2019-02-18T17:12:38.043Z,86.76
2019-02-18T17:15:43.509Z,87.15
2019-02-18T17:18:48.680Z,87.51
2019-02-18T17:21:53.792Z,88.28
2019-02-18T17:24:59.171Z,88.84
2019-02-18T17:28:04.371Z,89.30
2019-02-18T17:31:09.554Z,89.64
2019-02-18T17:34:14.698Z,90.43
2019-02-18T17:37:19.958Z,90.94
2019-02-18T17:40:25.485Z,91.57
2019-02-18T17:43:31.634Z,91.67
2019-02-18T17:46:36.850Z,91.55
2019-02-18T17:49:42.012Z,90.71
2019-02-18T17:52:47.457Z,91.17
2019-02-18T17:55:52.686Z,92.16
2019-02-18T17:58:57.834Z,93.00
2019-02-18T18:02:03.053Z,93.36
2019-02-18T18:05:09.106Z,93.58
2019-02-18T18:08:14.344Z,94.18
2019-02-18T18:11:19.612Z,94.11
2019-02-18T18:14:24.964Z,94.42
2019-02-18T18:17:30.315Z,94.90
2019-02-18T18:20:35.512Z,95.23
2019-02-18T18:23:40.637Z,95.16
2019-02-18T18:26:45.785Z,95.43
2019-02-18T18:29:50.989Z,95.90
2019-02-18T18:32:56.185Z,96.34
2019-02-18T18:36:01.418Z,96.76
2019-02-18T18:39:06.998Z,97.15
2019-02-18T18:42:12.832Z,97.14
2019-02-18T18:45:20.246Z,96.91
2019-02-18T18:48:25.455Z,96.98
2019-02-18T18:51:30.640Z,97.42
2019-02-18T18:54:35.850Z,97.62
2019-02-18T18:57:41.006Z,97.63
2019-02-18T19:00:46.197Z,97.96
2019-02-18T19:03:51.496Z,98.02
2019-02-18T19:06:56.816Z,98.14
2019-02-18T19:10:02.013Z,98.16
2019-02-18T19:13:07.262Z,98.92
2019-02-18T19:16:12.767Z,98.87
2019-02-18T19:19:17.936Z,99.03
2019-02-18T19:22:23.151Z,99.26
2019-02-18T19:25:28.298Z,99.46
2019-02-18T19:28:33.543Z,99.56
2019-02-18T19:31:38.700Z,99.33
2019-02-18T19:34:43.922Z,99.50
2019-02-18T19:37:49.209Z,99.71
2019-02-18T19:40:54.531Z,100.00
2019-02-18T19:43:59.710Z,100.00
2019-02-18T19:47:04.960Z,100.00
2019-02-18T19:50:10.249Z,100.00
2019-02-18T19:53:15.475Z,100.00
2019-02-18T19:56:21.135Z,100.00
2019-02-18T19:59:26.398Z,100.00
2019-02-18T20:02:31.630Z,100.00
2019-02-18T20:05:36.993Z,100.00
2019-02-18T20:08:42.150Z,100.00
2019-02-18T20:11:47.476Z,100.00
2019-02-18T20:14:52.638Z,100.00
2019-02-18T20:17:57.859Z,100.00
2019-02-18T20:21:03.051Z,100.00
2019-02-18T20:24:09.323Z,100.00
2019-02-18T20:27:17.265Z,100.00
2019-02-18T20:30:22.444Z,100.00
2019-02-18T20:33:27.578Z,100.00
2019-02-18T20:36:32.718Z,100.00
2019-02-18T20:39:37.926Z,100.00
2019-02-18T20:42:43.131Z,100.00
2019-02-18T20:45:48.273Z,100.00
2019-02-18T20:48:54.530Z,100.00
2019-02-18T20:51:59.659Z,100.00
2019-02-18T20:55:05.252Z,100.00
2019-02-18T20:58:12.019Z,100.00
2019-02-18T21:01:17.291Z,100.00
2019-02-18T21:04:22.493Z,100.00
2019-02-18T21:07:27.647Z,100.00
2019-02-18T21:10:32.826Z,100.00
2019-02-18T21:13:37.999Z,100.00
2019-02-18T21:16:43.212Z,100.00
2019-02-18T21:19:48.402Z,100.00
2019-02-18T21:22:53.744Z,100.00
2019-02-18T21:25:58.846Z,100.00
2019-02-18T21:29:03.978Z,100.00
2019-02-18T21:32:09.117Z,100.00
2019-02-18T21:35:14.382Z,100.00
2019-02-18T21:38:19.839Z,100.00
2019-02-18T21:41:25.054Z,100.00
2019-02-18T21:44:30.260Z,100.00
2019-02-18T21:47:35.393Z,100.00
2019-02-18T21:50:40.611Z,100.00
2019-02-18T21:53:45.747Z,100.00
2019-02-18T21:56:50.882Z,100.00
2019-02-18T21:59:56.031Z,100.00
2019-02-18T22:03:01.166Z,100.00
2019-02-18T22:06:06.477Z,100.00
2019-02-18T22:09:11.585Z,100.00
2019-02-18T22:12:16.767Z,100.00
2019-02-18T22:15:21.949Z,100.00
2019-02-18T22:18:27.201Z,100.00
2019-02-18T22:21:32.364Z,100.00
2019-02-18T22:24:37.620Z,100.00
2019-02-18T22:27:43.207Z,100.00
2019-02-18T22:30:48.388Z,100.00
2019-02-18T22:33:53.528Z,100.00
2019-02-18T22:36:59.119Z,100.00
2019-02-18T22:40:04.666Z,100.00
2019-02-18T22:43:09.814Z,100.00
2019-02-18T22:46:15.497Z,100.00
2019-02-18T22:49:20.706Z,100.00
2019-02-18T22:52:25.885Z,100.00
2019-02-18T22:55:31.294Z,100.00
2019-02-18T22:58:36.589Z,100.00
2019-02-18T23:01:42.583Z,100.00
2019-02-18T23:04:47.907Z,100.00
2019-02-18T23:07:53.064Z,100.00
2019-02-18T23:10:58.225Z,100.00
2019-02-18T23:14:03.380Z,100.00
2019-02-18T23:17:08.512Z,100.00
2019-02-18T23:20:13.760Z,100.00
2019-02-18T23:23:18.876Z,100.00
2019-02-18T23:26:24.060Z,100.00
2019-02-18T23:29:29.304Z,100.00
2019-02-18T23:32:34.454Z,100.00
2019-02-18T23:35:39.666Z,100.00
2019-02-18T23:38:44.781Z,100.00
2019-02-18T23:41:49.950Z,100.00
2019-02-18T23:44:59.249Z,100.00
2019-02-18T23:48:03.407Z,100.00
2019-02-18T23:51:08.622Z,100.00
2019-02-18T23:54:13.723Z,100.00
2019-02-18T23:57:18.914Z,100.00
